Time;durP1;ratioP1;P1;durP2;ratioP2;P2;SDS_P1;SDS_P2;PMS_P1;PMS_P2;Temp;Humidity;BMP_temperature;BMP_pressure;BME280_temperature;BME280_humidity;BME280_pressure;Samples;Min_cycle;Max_cycle;Signal;HPM_P1;HPM_P2
2022/04/30 00:02:17;;;;;;;6.50;6.00;;;15.70;41.00;;;;;;20778;6826;118501;-75
2022/04/30 00:04:44;;;;;;;6.73;6.33;;;15.80;40.40;;;;;;20565;6826;337332;-75
2022/04/30 00:07:09;;;;;;;7.17;6.67;;;15.80;40.40;;;;;;20777;6826;120859;-75
2022/04/30 00:09:36;;;;;;;7.00;6.60;;;15.70;40.50;;;;;;20525;6826;307540;-75
2022/04/30 00:12:02;;;;;;;6.40;6.10;;;15.80;40.90;;;;;;20551;6826;289724;-75
2022/04/30 00:14:27;;;;;;;7.23;6.57;;;16.10;41.30;;;;;;20555;6826;295164;-76
2022/04/30 00:16:54;;;;;;;7.10;6.60;;;16.40;39.20;;;;;;20534;6826;277562;-75
2022/04/30 00:19:20;;;;;;;7.20;6.60;;;16.40;39.20;;;;;;20763;6824;127564;-76
2022/04/30 00:21:45;;;;;;;7.10;6.68;;;16.20;39.70;;;;;;20564;6825;307388;-75
2022/04/30 00:24:10;;;;;;;6.73;6.33;;;16.10;41.30;;;;;;20782;6826;117118;-75
2022/04/30 00:26:37;;;;;;;7.00;6.50;;;15.90;42.10;;;;;;20566;6826;306029;-75
2022/04/30 00:29:02;;;;;;;7.10;6.60;;;15.90;41.90;;;;;;20779;6826;117052;-75
2022/04/30 00:31:28;;;;;;;6.93;6.47;;;15.80;42.00;;;;;;20768;6826;141890;-75
2022/04/30 00:33:53;;;;;;;7.20;6.60;;;15.50;42.50;;;;;;20578;6826;307747;-75
2022/04/30 00:36:19;;;;;;;7.90;7.20;;;15.60;43.30;;;;;;20791;6826;118088;-77
2022/04/30 00:38:45;;;;;;;8.02;7.53;;;15.50;42.40;;;;;;20574;6826;336076;-74
2022/04/30 00:41:11;;;;;;;8.13;7.53;;;15.70;41.70;;;;;;20570;6826;336863;-74
2022/04/30 00:43:44;;;;;;;8.07;7.47;;;15.70;42.20;;;;;;20545;6826;307495;-75
2022/04/30 00:46:16;;;;;;;7.63;7.13;;;15.80;41.90;;;;;;20783;6826;117165;-75
2022/04/30 00:48:41;;;;;;;8.20;7.60;;;15.60;42.10;;;;;;20772;6826;117530;-75
2022/04/30 00:51:10;;;;;;;7.53;7.13;;;15.20;42.60;;;;;;20780;6826;119199;-74
2022/04/30 00:53:41;;;;;;;8.20;7.70;;;14.70;43.40;;;;;;20756;6826;142046;-75
2022/04/30 00:56:11;;;;;;;8.27;7.50;;;14.60;43.30;;;;;;20771;6826;118607;-76
2022/04/30 00:58:35;;;;;;;8.90;8.25;;;14.50;43.70;;;;;;20558;6826;306611;-74
2022/04/30 01:01:01;;;;;;;8.80;8.23;;;14.70;44.10;;;;;;20772;6826;117663;-75
2022/04/30 01:03:26;;;;;;;8.33;7.83;;;14.70;43.90;;;;;;20547;6826;312024;-75
2022/04/30 01:05:52;;;;;;;8.53;7.93;;;14.90;43.90;;;;;;20775;6826;121125;-75
2022/04/30 01:08:17;;;;;;;8.23;7.73;;;14.90;43.70;;;;;;20778;6826;118212;-75
2022/04/30 01:10:43;;;;;;;8.40;7.87;;;14.70;43.90;;;;;;20771;6826;117145;-74
2022/04/30 01:13:10;;;;;;;9.73;9.00;;;14.70;44.00;;;;;;20552;6826;311469;-74
2022/04/30 01:15:35;;;;;;;8.00;7.30;;;14.70;44.00;;;;;;20754;6826;117993;-75
2022/04/30 01:18:01;;;;;;;7.40;6.90;;;14.50;44.10;;;;;;20773;6826;117240;-74
2022/04/30 01:20:27;;;;;;;7.67;7.13;;;14.50;44.10;;;;;;20777;6826;118661;-74
2022/04/30 01:23:02;;;;;;;7.47;6.95;;;14.30;44.30;;;;;;20775;6826;117153;-74
2022/04/30 01:25:28;;;;;;;7.57;7.07;;;14.10;44.50;;;;;;20759;6826;118728;-75
2022/04/30 01:27:53;;;;;;;7.20;6.80;;;14.00;44.60;;;;;;20776;6826;117584;-74
2022/04/30 01:30:19;;;;;;;8.48;7.87;;;14.00;44.80;;;;;;20561;6824;309541;-74
2022/04/30 01:38:15;;;;;;;8.60;7.90;;;14.70;44.20;;;;;;20783;6826;117535;-75
2022/04/30 01:40:41;;;;;;;8.20;7.60;;;14.70;44.20;;;;;;20776;6826;121358;-75
2022/04/30 01:43:08;;;;;;;8.67;8.17;;;14.70;44.70;;;;;;20570;6826;277978;-74
2022/04/30 01:45:34;;;;;;;8.97;8.20;;;14.70;44.60;;;;;;20755;6826;117550;-75
2022/04/30 01:48:00;;;;;;;9.43;8.83;;;14.70;44.60;;;;;;20568;6826;288714;-75
2022/04/30 01:50:26;;;;;;;8.60;8.10;;;14.90;44.90;;;;;;20779;6826;117150;-75
2022/04/30 01:52:51;;;;;;;8.73;7.45;;;14.90;44.80;;;;;;20569;6826;299285;-75
2022/04/30 01:55:16;;;;;;;8.00;7.50;;;15.00;44.90;;;;;;20774;6826;116954;-75
2022/04/30 01:57:43;;;;;;;10.97;10.17;;;15.00;45.10;;;;;;20542;6826;277985;-75
2022/04/30 02:00:10;;;;;;;14.02;13.00;;;15.30;45.20;;;;;;20558;6826;307404;-74
2022/04/30 02:02:35;;;;;;;12.63;11.63;;;15.30;45.10;;;;;;20767;6826;118683;-73
2022/04/30 02:05:02;;;;;;;13.52;12.43;;;15.20;45.10;;;;;;20560;6826;306567;-74
2022/04/30 02:07:29;;;;;;;12.93;11.73;;;15.20;45.90;;;;;;20749;6826;118749;-74
2022/04/30 02:09:54;;;;;;;14.02;13.05;;;15.10;45.50;;;;;;20554;6826;309114;-75
2022/04/30 02:12:21;;;;;;;11.07;10.27;;;15.30;46.10;;;;;;20740;6826;117649;-75
2022/04/30 02:14:49;;;;;;;8.50;8.00;;;15.20;45.90;;;;;;20724;6826;118939;-75
2022/04/30 02:17:15;;;;;;;8.27;7.77;;;14.90;45.90;;;;;;20712;6826;117318;-75
2022/04/30 02:22:26;;;;;;;8.93;8.37;;;14.90;46.40;;;;;;20752;6826;117046;-75
2022/04/30 02:24:51;;;;;;;9.83;9.17;;;14.80;46.00;;;;;;20776;6826;126491;-74
2022/04/30 02:30:43;;;;;;;9.80;9.10;;;14.10;46.60;;;;;;20763;6826;117139;-74
2022/04/30 02:33:09;;;;;;;9.60;8.70;;;14.10;46.20;;;;;;20782;6826;119297;-74
2022/04/30 02:35:35;;;;;;;11.10;10.20;;;14.00;46.40;;;;;;20508;6826;338171;-74
2022/04/30 02:38:01;;;;;;;10.83;10.00;;;14.30;46.50;;;;;;20544;6826;310959;-75
2022/04/30 02:40:26;;;;;;;10.30;9.70;;;14.80;46.10;;;;;;20519;6826;307677;-76
2022/04/30 02:42:52;;;;;;;10.87;9.07;;;15.10;45.30;;;;;;20741;6824;120098;-74
2022/04/30 02:45:18;;;;;;;11.10;10.30;;;15.00;45.30;;;;;;20548;6825;278583;-74
2022/04/30 02:47:43;;;;;;;11.20;10.40;;;15.10;45.10;;;;;;20536;6826;283403;-75
2022/04/30 02:50:09;;;;;;;11.38;10.57;;;15.30;45.00;;;;;;20557;6826;306254;-74
2022/04/30 02:52:34;;;;;;;11.87;10.87;;;15.50;44.70;;;;;;20764;6826;117494;-74
2022/04/30 02:55:00;;;;;;;11.90;11.00;;;15.30;44.90;;;;;;20556;6826;280747;-74
2022/04/30 02:57:27;;;;;;;11.93;11.02;;;15.30;45.00;;;;;;20739;6826;117531;-75
2022/04/30 02:59:55;;;;;;;12.80;11.73;;;15.10;45.10;;;;;;20551;6826;309855;-75
2022/04/30 03:02:21;;;;;;;12.27;11.17;;;15.20;45.50;;;;;;20779;6826;117503;-74
2022/04/30 03:04:51;;;;;;;13.17;11.63;;;15.10;45.60;;;;;;20779;6826;119496;-74
2022/04/30 03:07:16;;;;;;;14.03;12.90;;;14.80;45.90;;;;;;20562;6826;336347;-74
2022/04/30 03:09:41;;;;;;;13.40;12.30;;;15.00;46.30;;;;;;20764;6826;123371;-74
2022/04/30 03:12:09;;;;;;;14.63;13.43;;;14.70;47.30;;;;;;20778;6826;118344;-74
2022/04/30 03:14:33;;;;;;;16.83;15.20;;;14.70;46.60;;;;;;20538;6826;307840;-74
2022/04/30 03:22:10;;;;;;;15.50;14.37;;;15.10;46.30;;;;;;20513;6839;311291;-74
2022/04/30 03:24:35;;;;;;;13.18;12.18;;;15.20;46.30;;;;;;20515;6841;277858;-76
2022/04/30 03:27:01;;;;;;;15.40;14.00;;;15.40;46.30;;;;;;20514;6841;341525;-74
2022/04/30 03:29:27;;;;;;;14.35;13.15;;;15.60;45.80;;;;;;20492;6841;307448;-74
2022/04/30 03:31:53;;;;;;;15.43;14.13;;;15.70;45.70;;;;;;20492;6841;312956;-74
2022/04/30 03:34:19;;;;;;;14.37;13.27;;;15.80;45.50;;;;;;20716;6841;120340;-74
2022/04/30 03:36:44;;;;;;;14.43;13.38;;;15.60;45.50;;;;;;20504;6841;312615;-74
2022/04/30 03:39:10;;;;;;;14.03;12.93;;;15.50;46.20;;;;;;20731;6839;118485;-74
2022/04/30 03:41:36;;;;;;;14.10;12.73;;;15.30;46.40;;;;;;20716;6839;121343;-74
2022/04/30 03:44:02;;;;;;;13.40;12.27;;;15.00;46.60;;;;;;20713;6839;117525;-74
2022/04/30 03:46:27;;;;;;;15.70;14.30;;;14.70;47.10;;;;;;20529;6839;307477;-74
2022/04/30 03:48:56;;;;;;;14.93;13.63;;;14.90;47.60;;;;;;20733;6839;117206;-74
2022/04/30 03:51:23;;;;;;;15.63;14.32;;;14.80;47.30;;;;;;20502;6839;306736;-74
2022/04/30 03:53:48;;;;;;;16.17;14.70;;;15.00;47.60;;;;;;20532;6838;278162;-74
2022/04/30 03:56:16;;;;;;;15.30;14.13;;;15.30;47.20;;;;;;20530;6839;277243;-73
2022/04/30 03:58:40;;;;;;;16.50;14.80;;;15.60;46.90;;;;;;20725;6839;118583;-74
2022/04/30 04:01:05;;;;;;;15.35;14.13;;;15.40;46.80;;;;;;20520;6839;306049;-74
2022/04/30 04:03:31;;;;;;;16.70;15.30;;;15.40;47.10;;;;;;20500;6841;310462;-74
2022/04/30 04:05:57;;;;;;;15.25;13.82;;;15.60;47.10;;;;;;20725;6841;118197;-74
2022/04/30 04:08:22;;;;;;;14.25;13.00;;;15.40;47.10;;;;;;20721;6841;117885;-74
2022/04/30 04:10:47;;;;;;;17.10;15.57;;;15.10;47.40;;;;;;20508;6846;278084;-74
2022/04/30 04:18:44;;;;;;;20.13;18.30;;;14.90;48.20;;;;;;20516;6838;307733;-74
2022/04/30 04:21:10;;;;;;;20.42;18.73;;;15.10;48.90;;;;;;20466;6853;308801;-74
2022/04/30 04:26:20;;;;;;;19.77;18.03;;;15.60;48.10;;;;;;20533;6838;307743;-74
2022/04/30 04:28:46;;;;;;;18.33;16.73;;;15.80;47.90;;;;;;20488;6853;308262;-76
2022/04/30 04:31:11;;;;;;;16.40;15.10;;;15.90;47.70;;;;;;20643;6838;118215;-77
2022/04/30 04:33:38;;;;;;;17.20;15.70;;;15.60;47.70;;;;;;20499;6838;312550;-76
2022/04/30 04:36:05;;;;;;;19.47;17.77;;;15.60;47.70;;;;;;20521;6838;307990;-82
2022/04/30 04:38:31;;;;;;;19.25;17.48;;;15.60;47.70;;;;;;20520;6838;342062;-77
2022/04/30 04:40:56;;;;;;;17.00;15.50;;;15.70;47.60;;;;;;20738;6838;117565;-76
2022/04/30 04:43:22;;;;;;;18.55;16.98;;;15.50;47.70;;;;;;20505;6838;277679;-76
2022/04/30 04:45:47;;;;;;;22.13;19.90;;;15.40;48.20;;;;;;20479;6853;306250;-76
2022/04/30 04:48:14;;;;;;;19.43;17.40;;;15.40;48.20;;;;;;20729;6838;118260;-76
2022/04/30 04:50:40;;;;;;;21.70;19.67;;;15.40;48.70;;;;;;20538;6838;307191;-76
2022/04/30 04:53:05;;;;;;;20.47;18.77;;;15.40;48.70;;;;;;20482;6853;278972;-76
2022/04/30 04:55:31;;;;;;;21.87;19.90;;;15.50;48.50;;;;;;20490;6838;278851;-77
2022/04/30 04:57:58;;;;;;;23.10;21.10;;;15.60;48.60;;;;;;20528;6838;307193;-78
2022/04/30 05:00:25;;;;;;;23.07;20.93;;;15.80;49.30;;;;;;20530;6838;278536;-79
2022/04/30 05:02:50;;;;;;;23.13;21.13;;;15.90;49.40;;;;;;20483;6853;278548;-76
2022/04/30 05:05:16;;;;;;;21.40;19.60;;;15.90;49.40;;;;;;20516;6837;301922;-77
2022/04/30 05:07:41;;;;;;;18.10;16.40;;;16.00;49.00;;;;;;20708;6838;118074;-79
2022/04/30 05:10:08;;;;;;;22.67;20.70;;;15.70;49.10;;;;;;20477;6853;336196;-77
2022/04/30 05:12:34;;;;;;;19.90;18.03;;;15.70;50.40;;;;;;20699;6853;123008;-77
2022/04/30 05:15:00;;;;;;;23.23;21.02;;;15.50;50.70;;;;;;20531;6838;303727;-75
2022/04/30 05:17:25;;;;;;;20.67;18.70;;;15.50;50.70;;;;;;20720;6838;118484;-75
2022/04/30 05:19:51;;;;;;;24.52;22.25;;;15.30;51.10;;;;;;20482;6853;307815;-77
2022/04/30 05:22:18;;;;;;;23.90;21.50;;;15.40;51.40;;;;;;20735;6838;117828;-77
2022/04/30 05:24:42;;;;;;;23.07;20.50;;;15.20;51.20;;;;;;20730;6838;117562;-78
2022/04/30 05:27:08;;;;;;;25.67;23.20;;;14.90;51.60;;;;;;20500;6845;311374;-81
2022/04/30 05:29:33;;;;;;;25.20;22.90;;;15.00;53.40;;;;;;20518;6826;278958;-78
2022/04/30 05:31:59;;;;;;;24.80;22.63;;;15.30;53.60;;;;;;20452;6863;313084;-79
2022/04/30 05:34:25;;;;;;;22.53;20.37;;;15.30;52.50;;;;;;20666;6863;117471;-78
2022/04/30 05:36:52;;;;;;;27.10;24.30;;;15.30;52.50;;;;;;20499;6841;312073;-78
2022/04/30 05:39:18;;;;;;;24.13;21.63;;;15.30;53.50;;;;;;20731;6841;117445;-77
2022/04/30 05:41:43;;;;;;;21.98;19.67;;;15.10;53.30;;;;;;20712;6841;117552;-81
2022/04/30 05:44:09;;;;;;;22.40;20.13;;;14.80;53.60;;;;;;20725;6841;118508;-80
2022/04/30 05:46:34;;;;;;;28.35;25.77;;;14.60;54.00;;;;;;20513;6841;277888;-78
2022/04/30 05:49:00;;;;;;;24.67;22.30;;;14.80;55.30;;;;;;20722;6841;117711;-76
2022/04/30 05:51:26;;;;;;;28.97;26.13;;;14.80;54.70;;;;;;20509;6841;306268;-77
2022/04/30 05:53:51;;;;;;;25.30;22.90;;;15.00;55.50;;;;;;20714;6841;118046;-77
2022/04/30 05:56:17;;;;;;;29.90;27.03;;;14.90;54.90;;;;;;20515;6841;289180;-76
2022/04/30 05:58:42;;;;;;;25.50;22.90;;;15.10;55.50;;;;;;20670;6841;121538;-74
2022/04/30 06:01:09;;;;;;;28.35;25.75;;;15.00;55.10;;;;;;20511;6841;307067;-73
2022/04/30 06:03:33;;;;;;;24.80;22.43;;;15.10;55.60;;;;;;20687;6841;118691;-72
2022/04/30 06:05:59;;;;;;;27.52;25.02;;;15.10;55.20;;;;;;20497;6841;340288;-76
2022/04/30 06:08:27;;;;;;;25.23;22.70;;;15.20;55.50;;;;;;20723;6841;118539;-76
2022/04/30 06:10:56;;;;;;;23.17;21.00;;;14.90;55.30;;;;;;20726;6841;118418;-77
2022/04/30 06:13:22;;;;;;;23.93;21.57;;;14.90;55.30;;;;;;20711;6841;119627;-78
2022/04/30 06:15:47;;;;;;;28.40;25.77;;;14.70;55.40;;;;;;20523;6841;306415;-77
2022/04/30 06:18:15;;;;;;;25.83;23.23;;;14.90;56.40;;;;;;20735;6839;121863;-78
2022/04/30 06:20:38;;;;;;;28.35;25.73;;;14.90;55.80;;;;;;20528;6840;309767;-73
2022/04/30 06:23:06;;;;;;;29.10;26.42;;;15.00;56.40;;;;;;20509;6840;276841;-77
2022/04/30 06:25:31;;;;;;;25.43;23.23;;;15.30;55.40;;;;;;20495;6841;305772;-76
2022/04/30 06:28:01;;;;;;;27.17;24.67;;;15.50;54.80;;;;;;20527;6841;306682;-79
2022/04/30 06:30:23;;;;;;;24.87;22.40;;;15.70;54.30;;;;;;20728;6841;116954;-77
2022/04/30 06:32:48;;;;;;;22.37;20.17;;;15.50;54.20;;;;;;20727;6841;117802;-82
2022/04/30 06:35:14;;;;;;;22.25;20.15;;;15.30;54.60;;;;;;20735;6841;117593;-79
2022/04/30 06:37:39;;;;;;;28.07;25.47;;;15.00;55.00;;;;;;20496;6841;311812;-79
2022/04/30 06:40:06;;;;;;;28.80;26.13;;;15.40;56.00;;;;;;20509;6841;306852;-83
2022/04/30 06:42:44;;;;;;;23.60;21.57;;;15.40;56.00;;;;;;20730;6841;117889;-77
2022/04/30 06:45:09;;;;;;;27.97;25.27;;;15.40;56.60;;;;;;20510;6841;306895;-79
2022/04/30 06:47:34;;;;;;;23.30;21.13;;;15.50;56.60;;;;;;20708;6841;117606;-75
2022/04/30 06:50:00;;;;;;;26.27;23.87;;;15.50;56.30;;;;;;20517;6841;310350;-74
2022/04/30 06:52:25;;;;;;;25.08;22.87;;;15.70;56.40;;;;;;20520;6841;307713;-74
2022/04/30 06:57:37;;;;;;;26.60;24.30;;;15.90;55.00;;;;;;20483;6841;309284;-76
2022/04/30 07:01:25;;;;;;;23.57;21.37;;;16.00;55.10;;;;;;20506;6841;310946;-76
2022/04/30 07:02:31;;;;;;;21.00;19.30;;;16.20;54.00;;;;;;20666;6841;121297;-76
2022/04/30 07:04:54;;;;;;;20.87;18.97;;;16.10;54.10;;;;;;20721;6841;118172;-76
2022/04/30 07:07:21;;;;;;;19.30;17.80;;;15.90;54.70;;;;;;20523;6841;306707;-75
2022/04/30 07:09:47;;;;;;;20.53;18.93;;;16.30;55.00;;;;;;20375;6841;278044;-74
2022/04/30 07:12:14;;;;;;;22.20;20.30;;;16.30;54.90;;;;;;20521;6841;335836;-73
2022/04/30 07:14:40;;;;;;;21.67;19.87;;;16.60;53.00;;;;;;20512;6841;307307;-74
2022/04/30 07:17:08;;;;;;;19.05;17.45;;;16.80;52.90;;;;;;20715;6841;117860;-76
2022/04/30 07:19:34;;;;;;;18.57;16.97;;;16.20;53.20;;;;;;20671;6841;118039;-74
2022/04/30 07:22:00;;;;;;;22.27;20.37;;;16.20;53.30;;;;;;20514;6841;310652;-78
2022/04/30 07:24:25;;;;;;;19.43;17.73;;;16.20;54.10;;;;;;20725;6841;117442;-77
2022/04/30 07:26:51;;;;;;;22.23;20.42;;;16.10;54.00;;;;;;20512;6841;334993;-77
2022/04/30 07:29:16;;;;;;;20.53;18.50;;;16.30;53.60;;;;;;20727;6839;117517;-74
2022/04/30 07:31:43;;;;;;;23.17;21.27;;;16.20;53.70;;;;;;20503;6840;335393;-74
2022/04/30 07:34:12;;;;;;;19.93;18.20;;;16.30;53.30;;;;;;20730;6840;117788;-72
2022/04/30 07:36:40;;;;;;;23.17;21.27;;;16.20;53.30;;;;;;20502;6841;289121;-73
2022/04/30 07:39:07;;;;;;;22.73;20.73;;;16.60;53.30;;;;;;20521;6841;307401;-73
2022/04/30 07:41:32;;;;;;;21.10;19.10;;;16.50;53.10;;;;;;20714;6841;117563;-72
2022/04/30 07:43:59;;;;;;;23.85;21.85;;;16.50;54.00;;;;;;20528;6841;290150;-73
2022/04/30 07:46:26;;;;;;;20.63;18.93;;;16.50;54.00;;;;;;20723;6841;118209;-74
2022/04/30 07:48:51;;;;;;;18.87;17.30;;;16.40;54.00;;;;;;20735;6841;121996;-75
2022/04/30 07:51:19;;;;;;;22.27;20.37;;;16.10;54.30;;;;;;20520;6841;299278;-76
2022/04/30 07:53:42;;;;;;;20.35;18.52;;;16.20;54.00;;;;;;20696;6841;121094;-81
2022/04/30 07:56:08;;;;;;;19.37;17.67;;;16.10;53.70;;;;;;20742;6841;117364;-76
2022/04/30 07:58:33;;;;;;;21.70;19.98;;;15.90;53.90;;;;;;20518;6841;277873;-76
2022/04/30 08:00:59;;;;;;;20.47;18.77;;;16.00;53.80;;;;;;20727;6841;117847;-75
2022/04/30 08:03:24;;;;;;;18.17;16.67;;;15.90;53.70;;;;;;20714;6841;147074;-79
2022/04/30 08:05:50;;;;;;;18.40;16.67;;;15.70;54.10;;;;;;20733;6841;118129;-76
2022/04/30 08:08:16;;;;;;;19.40;17.62;;;15.40;54.40;;;;;;20735;6841;118694;-77
2022/04/30 08:10:42;;;;;;;20.73;19.23;;;15.30;54.80;;;;;;20520;6841;306397;-78
2022/04/30 08:13:07;;;;;;;21.47;19.67;;;15.50;55.20;;;;;;20503;6841;294992;-76
2022/04/30 08:15:34;;;;;;;21.47;19.80;;;15.80;55.10;;;;;;20491;6841;302137;-77
2022/04/30 08:17:59;;;;;;;19.10;17.60;;;16.10;54.60;;;;;;20701;6841;118233;-77
2022/04/30 08:20:25;;;;;;;18.60;17.00;;;15.90;53.80;;;;;;20716;6841;117924;-77
2022/04/30 08:22:50;;;;;;;17.70;16.27;;;15.60;54.20;;;;;;20729;6841;117555;-77
2022/04/30 08:25:16;;;;;;;18.12;16.52;;;15.30;54.70;;;;;;20727;6841;117444;-77
2022/04/30 08:27:42;;;;;;;20.40;18.80;;;15.10;55.30;;;;;;20502;6841;306011;-77
2022/04/30 08:30:07;;;;;;;20.13;18.53;;;15.30;56.10;;;;;;20519;6841;282287;-77
2022/04/30 08:32:33;;;;;;;17.20;15.83;;;15.70;56.20;;;;;;20731;6841;118681;-77
2022/04/30 08:34:58;;;;;;;18.73;17.33;;;15.70;55.20;;;;;;20527;6841;310669;-77
2022/04/30 08:37:24;;;;;;;19.80;18.25;;;15.80;55.50;;;;;;20485;6841;306550;-77
2022/04/30 08:39:49;;;;;;;19.73;18.23;;;16.10;54.50;;;;;;20514;6839;307265;-76
2022/04/30 08:42:15;;;;;;;20.37;18.67;;;16.30;53.70;;;;;;20521;6840;333421;-75
2022/04/30 08:44:40;;;;;;;18.92;17.52;;;16.40;53.50;;;;;;20527;6840;277450;-74
2022/04/30 08:47:07;;;;;;;16.12;14.87;;;16.60;53.00;;;;;;20740;6841;117718;-75
2022/04/30 08:49:32;;;;;;;17.92;16.73;;;16.40;53.30;;;;;;20501;6841;311795;-75
2022/04/30 08:51:58;;;;;;;16.47;15.00;;;16.30;53.00;;;;;;20727;6841;117434;-74
2022/04/30 08:54:24;;;;;;;16.57;15.20;;;16.20;52.90;;;;;;20729;6841;117499;-74
2022/04/30 08:56:55;;;;;;;14.73;13.53;;;16.00;53.60;;;;;;20730;6841;117792;-75
2022/04/30 08:59:21;;;;;;;13.73;12.60;;;15.80;54.30;;;;;;20707;6841;117906;-75
2022/04/30 09:01:46;;;;;;;16.02;14.87;;;15.70;54.60;;;;;;20521;6841;281973;-75
2022/04/30 09:04:12;;;;;;;15.68;14.57;;;15.90;55.00;;;;;;20512;6841;335952;-76
2022/04/30 09:06:45;;;;;;;13.80;12.80;;;16.30;54.70;;;;;;20730;6841;117808;-75
2022/04/30 09:09:12;;;;;;;14.27;13.07;;;16.10;55.40;;;;;;20723;6841;117397;-75
2022/04/30 09:11:42;;;;;;;12.20;11.30;;;16.10;54.70;;;;;;20710;6841;118023;-74
2022/04/30 09:14:08;;;;;;;11.20;10.30;;;15.80;56.00;;;;;;20734;6841;117430;-78
2022/04/30 09:16:33;;;;;;;11.47;10.60;;;15.80;55.20;;;;;;20698;6841;117504;-75
2022/04/30 09:19:06;;;;;;;11.27;10.38;;;15.60;55.90;;;;;;20691;6841;117518;-75
2022/04/30 09:21:31;;;;;;;10.33;9.63;;;15.60;55.40;;;;;;20711;6841;142896;-75
2022/04/30 09:24:03;;;;;;;12.00;11.20;;;15.60;55.60;;;;;;20503;6841;307156;-74
2022/04/30 09:26:43;;;;;;;10.73;9.93;;;15.80;55.60;;;;;;20664;6856;118178;-74
2022/04/30 09:29:24;;;;;;;10.60;9.80;;;15.90;54.80;;;;;;20722;6845;117614;-73
2022/04/30 09:31:50;;;;;;;9.90;9.20;;;15.80;54.80;;;;;;20719;6845;117793;-73
2022/04/30 09:39:46;;;;;;;9.73;9.03;;;15.40;55.10;;;;;;20721;6845;117451;-72
2022/04/30 09:42:12;;;;;;;11.90;11.10;;;15.40;55.60;;;;;;20502;6845;307849;-72
2022/04/30 09:44:37;;;;;;;11.10;10.30;;;15.70;55.20;;;;;;20467;6860;307562;-76
2022/04/30 09:47:07;;;;;;;9.93;9.23;;;16.20;54.70;;;;;;20676;6860;123416;-75
2022/04/30 09:55:07;;;;;;;7.23;6.90;;;16.00;54.60;;;;;;20719;6844;117275;-74
2022/04/30 09:57:32;;;;;;;8.27;7.77;;;16.00;54.60;;;;;;20707;6844;118575;-72
2022/04/30 09:59:58;;;;;;;8.63;8.13;;;16.00;54.90;;;;;;20505;6845;281421;-73
2022/04/30 10:02:24;;;;;;;9.20;8.57;;;16.30;53.40;;;;;;20509;6845;312276;-74
2022/04/30 10:04:49;;;;;;;8.40;7.90;;;16.70;51.90;;;;;;20716;6845;117934;-75
2022/04/30 10:07:15;;;;;;;8.97;8.47;;;16.70;52.00;;;;;;20508;6845;311125;-73
2022/04/30 10:09:40;;;;;;;7.90;7.37;;;16.80;52.10;;;;;;20693;6845;118280;-74
2022/04/30 10:12:26;;;;;;;7.40;7.00;;;16.90;52.20;;;;;;20711;6845;123637;-74
2022/04/30 10:14:58;;;;;;;8.82;8.32;;;16.80;52.50;;;;;;20512;6845;277418;-74
2022/04/30 10:17:25;;;;;;;7.73;7.33;;;17.00;52.20;;;;;;20698;6845;148066;-74
2022/04/30 10:19:55;;;;;;;8.47;8.00;;;17.20;52.20;;;;;;20512;6845;307283;-75
2022/04/30 10:22:21;;;;;;;8.17;7.63;;;17.40;49.90;;;;;;20686;6845;117718;-74
2022/04/30 10:24:46;;;;;;;8.30;7.80;;;17.50;50.60;;;;;;20515;6845;307589;-73
2022/04/30 10:27:12;;;;;;;8.30;7.90;;;17.70;50.20;;;;;;20503;6845;281772;-73
2022/04/30 10:29:37;;;;;;;8.23;7.82;;;18.00;50.00;;;;;;20487;6845;312598;-76
2022/04/30 10:32:03;;;;;;;8.37;7.97;;;18.30;48.80;;;;;;20720;6845;117393;-73
2022/04/30 10:34:29;;;;;;;7.80;7.30;;;18.30;49.40;;;;;;20717;6845;118320;-74
2022/04/30 10:36:55;;;;;;;6.67;6.27;;;18.10;49.80;;;;;;20719;6845;121007;-76
2022/04/30 10:39:20;;;;;;;8.25;7.75;;;18.00;49.90;;;;;;20483;6845;335952;-77
2022/04/30 10:41:45;;;;;;;7.77;7.33;;;18.10;48.50;;;;;;20561;6845;117645;-76
2022/04/30 10:44:13;;;;;;;8.30;7.80;;;18.30;49.40;;;;;;20500;6845;306908;-77
2022/04/30 10:46:37;;;;;;;7.47;7.03;;;18.30;49.40;;;;;;20714;6845;117672;-76
2022/04/30 10:49:04;;;;;;;8.60;8.10;;;18.40;49.40;;;;;;20505;6845;307357;-78
2022/04/30 10:51:40;;;;;;;8.20;7.70;;;18.50;47.80;;;;;;20697;6845;121200;-75
2022/04/30 10:54:13;;;;;;;19.15;17.65;;;18.30;48.30;;;;;;20501;6845;340876;-75
2022/04/30 10:56:39;;;;;;;9.05;8.55;;;18.50;47.20;;;;;;20438;6860;307160;-74
2022/04/30 10:59:04;;;;;;;8.68;8.18;;;18.40;47.10;;;;;;20511;6845;278670;-75
2022/04/30 11:01:30;;;;;;;7.80;7.40;;;18.50;46.80;;;;;;20489;6845;277702;-76
2022/04/30 11:03:55;;;;;;;6.47;5.97;;;18.40;47.50;;;;;;20728;6843;117636;-75
2022/04/30 11:06:24;;;;;;;8.00;7.60;;;18.20;48.30;;;;;;20730;6844;117141;-73
2022/04/30 11:09:03;;;;;;;7.70;7.30;;;17.80;48.60;;;;;;20503;6844;306401;-75
2022/04/30 11:11:28;;;;;;;7.97;7.57;;;17.90;48.70;;;;;;20472;6845;328801;-76
2022/04/30 11:13:54;;;;;;;6.93;6.53;;;18.10;47.30;;;;;;20716;6845;118622;-74
2022/04/30 11:16:19;;;;;;;7.35;6.95;;;18.00;47.70;;;;;;20430;6845;311360;-74
2022/04/30 11:18:45;;;;;;;5.90;5.60;;;18.10;48.10;;;;;;20509;6845;337644;-75
2022/04/30 11:21:12;;;;;;;5.37;5.17;;;18.30;47.10;;;;;;20692;6845;118471;-76
2022/04/30 11:23:37;;;;;;;5.00;4.80;;;18.30;47.40;;;;;;20486;6845;282326;-75
2022/04/30 11:26:03;;;;;;;5.47;5.18;;;18.30;45.40;;;;;;20524;6845;307361;-73
2022/04/30 11:28:29;;;;;;;5.37;5.07;;;18.60;44.90;;;;;;20531;6845;277122;-73
2022/04/30 11:30:58;;;;;;;5.40;5.10;;;19.00;44.40;;;;;;20511;6845;307668;-74
2022/04/30 11:33:24;;;;;;;5.10;4.82;;;19.00;44.40;;;;;;20470;6845;277414;-73
2022/04/30 11:35:54;;;;;;;5.17;4.97;;;19.40;43.30;;;;;;20478;6845;277471;-74
2022/04/30 11:38:19;;;;;;;4.63;4.43;;;19.40;43.30;;;;;;20719;6845;118469;-75
2022/04/30 11:40:44;;;;;;;5.20;4.90;;;19.20;43.80;;;;;;20703;6845;116666;-74
2022/04/30 11:43:10;;;;;;;4.80;4.60;;;18.90;44.80;;;;;;20511;6845;306801;-78
2022/04/30 11:45:35;;;;;;;4.43;4.22;;;18.90;45.00;;;;;;20706;6845;117337;-75
2022/04/30 11:48:01;;;;;;;4.90;4.70;;;18.90;45.00;;;;;;20509;6845;277826;-74
2022/04/30 11:50:28;;;;;;;4.33;4.13;;;19.00;44.00;;;;;;20720;6845;117394;-74
2022/04/30 11:52:53;;;;;;;4.40;4.13;;;19.00;44.30;;;;;;20703;6845;117280;-77
2022/04/30 11:55:20;;;;;;;4.20;4.00;;;18.70;44.60;;;;;;20710;6845;118607;-76
2022/04/30 11:57:44;;;;;;;5.00;4.70;;;18.50;44.60;;;;;;20491;6845;281874;-75
2022/04/30 12:00:10;;;;;;;6.90;6.60;;;18.50;44.10;;;;;;20700;6845;117571;-75
2022/04/30 12:02:39;;;;;;;7.23;6.93;;;18.20;44.60;;;;;;20706;6845;117487;-78
2022/04/30 12:05:01;;;;;;;6.40;6.10;;;17.80;45.20;;;;;;20710;6845;117545;-77
2022/04/30 12:07:27;;;;;;;4.67;4.47;;;17.50;46.10;;;;;;20681;6845;121256;-76
2022/04/30 12:09:53;;;;;;;4.10;3.90;;;17.20;46.80;;;;;;20674;6845;117415;-76
2022/04/30 12:12:21;;;;;;;5.03;4.72;;;16.90;47.50;;;;;;20508;6845;306494;-76
2022/04/30 12:14:46;;;;;;;5.40;5.10;;;17.10;48.30;;;;;;20713;6843;117349;-76
2022/04/30 12:17:12;;;;;;;4.57;4.17;;;17.20;48.70;;;;;;20715;6844;117170;-75
2022/04/30 12:25:12;;;;;;;4.70;4.40;;;17.40;48.70;;;;;;20725;6845;119266;-74
2022/04/30 12:27:38;;;;;;;4.10;3.90;;;17.30;48.50;;;;;;20696;6845;121561;-75
2022/04/30 12:30:15;;;;;;;4.40;4.20;;;17.00;49.00;;;;;;20716;6845;117231;-75
2022/04/30 12:32:50;;;;;;;4.50;4.20;;;17.00;49.00;;;;;;20720;6845;117180;-75
2022/04/30 12:35:25;;;;;;;3.50;3.30;;;17.00;49.40;;;;;;20719;6845;117880;-75
2022/04/30 12:37:50;;;;;;;3.40;3.30;;;16.90;49.30;;;;;;20727;6845;117902;-75
2022/04/30 12:40:16;;;;;;;3.27;3.17;;;16.90;49.30;;;;;;20676;6845;117348;-75
2022/04/30 12:42:41;;;;;;;3.70;3.50;;;16.90;49.30;;;;;;20513;6845;307074;-75
2022/04/30 12:45:08;;;;;;;3.40;3.30;;;17.30;47.70;;;;;;20724;6845;117071;-75
2022/04/30 12:47:34;;;;;;;3.87;3.63;;;17.60;47.80;;;;;;20704;6845;118302;-77
2022/04/30 12:49:59;;;;;;;2.63;2.53;;;17.60;47.50;;;;;;20722;6845;117186;-76
2022/04/30 12:52:25;;;;;;;3.10;3.00;;;17.60;47.60;;;;;;20720;6845;117579;-73
2022/04/30 12:54:51;;;;;;;2.95;2.75;;;17.60;47.60;;;;;;20721;6845;121663;-75
2022/04/30 12:57:18;;;;;;;3.50;3.40;;;17.80;45.90;;;;;;20510;6845;311291;-75
2022/04/30 12:59:44;;;;;;;3.20;3.00;;;17.80;45.60;;;;;;20703;6845;118453;-74
2022/04/30 13:02:09;;;;;;;4.73;4.43;;;17.80;46.00;;;;;;20717;6845;117344;-74
2022/04/30 13:04:34;;;;;;;3.80;3.60;;;17.60;46.40;;;;;;20508;6845;311844;-73
2022/04/30 13:07:00;;;;;;;4.00;3.80;;;17.70;45.70;;;;;;20717;6845;118457;-74